Maria — SV7156 — position and weather

sailwx.info

Track history (hours):
 
Tides and Currents Weather Stations Pressure Air Temp Water Temp Dewpoint Dewpoint Depression Visibility Wind Speed Wind Dir Waves Ship Positions

Maria

Last reported at 2016-Dec-05 15:34 UTC. Time now 2016-Dec-05 18:42 UTC.
Position N 37°58' E 023°35'.

Length 74 m; draft 4.5 m.

Type: Ship. MMSI: 237493000.

Date/timePositionNaut miles runAvg speedWind from/ knotsBaromVisibWave heightAir tempDewpointWater temp
2016-Dec-05 15:34N 37°58' E 023°35'0 0.3
2016-Dec-05 14:34N 37°57' E 023°35'0 0.0
2016-Dec-05 13:34N 37°57' E 023°35'0 0.0
2016-Dec-05 12:34N 37°57' E 023°35'0 0.0
2016-Dec-05 11:33N 37°57' E 023°35'0 0.0
2016-Dec-05 10:34N 37°57' E 023°35'0 0.0
2016-Dec-05 09:33N 37°57' E 023°35'0 0.0
2016-Dec-05 08:34N 37°57' E 023°35'0 0.0
2016-Dec-05 07:33N 37°57' E 023°35'0 0.0
2016-Dec-05 06:34N 37°57' E 023°35'0 0.0
2016-Dec-05 05:34N 37°57' E 023°35'0 0.1
2016-Dec-05 04:34N 37°57' E 023°35'  
2016-Dec-02 23:33N 37°57' E 023°35'0 0.2
2016-Dec-02 22:34N 37°57' E 023°35'0 0.0
2016-Dec-02 21:33N 37°57' E 023°35'0 0.0
2016-Dec-02 20:33N 37°57' E 023°35'0 0.0
2016-Dec-02 19:33N 37°57' E 023°35'0 0.0
2016-Dec-02 18:33N 37°57' E 023°35'0 0.0
2016-Dec-02 17:24N 37°57' E 023°35'0 0.0
2016-Dec-02 16:32N 37°57' E 023°35'1 0.5
2016-Dec-02 15:23N 37°58' E 023°35'0 0.0
2016-Dec-02 14:32N 37°58' E 023°35'0 0.0
2016-Dec-02 12:13N 37°58' E 023°35'0 0.1
2016-Dec-02 11:17N 37°58' E 023°35'0 0.0
2016-Dec-02 07:20N 37°58' E 023°35'0 0.0
2016-Nov-30 06:18N 37°58' E 023°35'3 4.1
2016-Nov-30 05:34N 37°55' E 023°33'7 6.7
2016-Nov-30 04:33N 37°52' E 023°25'7 7.3
2016-Nov-30 03:33N 37°53' E 023°16'7 7.3
2016-Nov-30 02:33N 37°54' E 023°07'0 0.1
2016-Nov-29 19:31N 37°54' E 023°07'7 7.5
2016-Nov-29 18:32N 37°53' E 023°16'7 7.1
2016-Nov-29 17:34N 37°52' E 023°24'8 7.6
2016-Nov-29 16:34N 37°55' E 023°33'3 3.0
2016-Nov-29 15:33N 37°58' E 023°35'0 0.0
2016-Nov-29 07:33N 37°58' E 023°35'0 0.0
2016-Nov-29 06:33N 37°58' E 023°35'0 0.0
2016-Nov-28 16:33N 37°58' E 023°35'1 1.1
2016-Nov-28 15:33N 37°57' E 023°36'0 0.0
2016-Nov-28 14:33N 37°57' E 023°36'0 0.0
2016-Nov-28 13:33N 37°57' E 023°36'0 0.0
2016-Nov-28 12:33N 37°57' E 023°36'1 1.0
2016-Nov-28 11:33N 37°58' E 023°35'0 0.0
2016-Nov-28 10:33N 37°58' E 023°35'0 0.0
2016-Nov-28 09:33N 37°58' E 023°35'1 1.2
2016-Nov-28 08:33N 37°57' E 023°33'5 4.7
2016-Nov-28 07:34N 38°02' E 023°36'0 0.0
2016-Nov-28 06:33N 38°02' E 023°36'1 0.5
2016-Nov-28 05:33N 38°02' E 023°35'5 5.5
2016-Nov-28 04:33N 37°56' E 023°35'5 5.2
2016-Nov-28 03:33N 37°51' E 023°32'0 0.1
2016-Nov-28 02:33N 37°51' E 023°32'0 0.0
2016-Nov-28 01:33N 37°51' E 023°32'0 0.0
2016-Nov-28 00:33N 37°51' E 023°32'0 0.3
2016-Nov-27 23:33N 37°52' E 023°32'0 0.2
2016-Nov-27 22:33N 37°51' E 023°32'0 0.0
2016-Nov-27 21:33N 37°51' E 023°32'0 0.1
2016-Nov-27 20:33N 37°51' E 023°32'0 0.0
2016-Nov-27 19:33N 37°51' E 023°32'0 0.1
2016-Nov-27 18:33N 37°52' E 023°32'0 0.1
2016-Nov-27 17:33N 37°51' E 023°32'0 0.0
2016-Nov-27 16:33N 37°51' E 023°32'0 0.0
2016-Nov-27 15:33N 37°51' E 023°32'0 0.1
2016-Nov-27 14:33N 37°51' E 023°32'0 0.1
2016-Nov-27 13:33N 37°51' E 023°32'0 0.0
2016-Nov-27 12:34N 37°51' E 023°32'1 1.1
2016-Nov-27 11:33N 37°52' E 023°33'5 5.4
2016-Nov-27 10:33N 37°57' E 023°35'  
Track history (hours):
 
Tides and Currents Weather Stations Pressure Air Temp Water Temp Dewpoint Dewpoint Depression Visibility Wind Speed Wind Dir Waves Ship Positions

Maria

Last reported at 2016-Dec-05 15:34 UTC. Time now 2016-Dec-05 18:42 UTC.
Position N 37°58' E 023°35'.

Length 74 m; draft 4.5 m.

Type: Ship. MMSI: 237493000.

Date/timePositionNaut miles runAvg speedWind from/ knotsBaromVisibWave heightAir tempDewpointWater temp
2016-Dec-05 15:34N 37°58' E 023°35'0 0.3
2016-Dec-05 14:34N 37°57' E 023°35'0 0.0
2016-Dec-05 13:34N 37°57' E 023°35'0 0.0
2016-Dec-05 12:34N 37°57' E 023°35'0 0.0
2016-Dec-05 11:33N 37°57' E 023°35'0 0.0
2016-Dec-05 10:34N 37°57' E 023°35'0 0.0
2016-Dec-05 09:33N 37°57' E 023°35'0 0.0
2016-Dec-05 08:34N 37°57' E 023°35'0 0.0
2016-Dec-05 07:33N 37°57' E 023°35'0 0.0
2016-Dec-05 06:34N 37°57' E 023°35'0 0.0
2016-Dec-05 05:34N 37°57' E 023°35'0 0.1
2016-Dec-05 04:34N 37°57' E 023°35'  
2016-Dec-02 23:33N 37°57' E 023°35'0 0.2
2016-Dec-02 22:34N 37°57' E 023°35'0 0.0
2016-Dec-02 21:33N 37°57' E 023°35'0 0.0
2016-Dec-02 20:33N 37°57' E 023°35'0 0.0
2016-Dec-02 19:33N 37°57' E 023°35'0 0.0
2016-Dec-02 18:33N 37°57' E 023°35'0 0.0
2016-Dec-02 17:24N 37°57' E 023°35'0 0.0
2016-Dec-02 16:32N 37°57' E 023°35'1 0.5
2016-Dec-02 15:23N 37°58' E 023°35'0 0.0
2016-Dec-02 14:32N 37°58' E 023°35'0 0.0
2016-Dec-02 12:13N 37°58' E 023°35'0 0.1
2016-Dec-02 11:17N 37°58' E 023°35'0 0.0
2016-Dec-02 07:20N 37°58' E 023°35'0 0.0
2016-Nov-30 06:18N 37°58' E 023°35'3 4.1
2016-Nov-30 05:34N 37°55' E 023°33'7 6.7
2016-Nov-30 04:33N 37°52' E 023°25'7 7.3
2016-Nov-30 03:33N 37°53' E 023°16'7 7.3
2016-Nov-30 02:33N 37°54' E 023°07'0 0.1
2016-Nov-29 19:31N 37°54' E 023°07'7 7.5
2016-Nov-29 18:32N 37°53' E 023°16'7 7.1
2016-Nov-29 17:34N 37°52' E 023°24'8 7.6
2016-Nov-29 16:34N 37°55' E 023°33'3 3.0
2016-Nov-29 15:33N 37°58' E 023°35'0 0.0
2016-Nov-29 07:33N 37°58' E 023°35'0 0.0
2016-Nov-29 06:33N 37°58' E 023°35'0 0.0
2016-Nov-28 16:33N 37°58' E 023°35'1 1.1
2016-Nov-28 15:33N 37°57' E 023°36'0 0.0
2016-Nov-28 14:33N 37°57' E 023°36'0 0.0
2016-Nov-28 13:33N 37°57' E 023°36'0 0.0
2016-Nov-28 12:33N 37°57' E 023°36'1 1.0
2016-Nov-28 11:33N 37°58' E 023°35'0 0.0
2016-Nov-28 10:33N 37°58' E 023°35'0 0.0
2016-Nov-28 09:33N 37°58' E 023°35'1 1.2
2016-Nov-28 08:33N 37°57' E 023°33'5 4.7
2016-Nov-28 07:34N 38°02' E 023°36'0 0.0
2016-Nov-28 06:33N 38°02' E 023°36'1 0.5
2016-Nov-28 05:33N 38°02' E 023°35'5 5.5
2016-Nov-28 04:33N 37°56' E 023°35'5 5.2
2016-Nov-28 03:33N 37°51' E 023°32'0 0.1
2016-Nov-28 02:33N 37°51' E 023°32'0 0.0
2016-Nov-28 01:33N 37°51' E 023°32'0 0.0
2016-Nov-28 00:33N 37°51' E 023°32'0 0.3
2016-Nov-27 23:33N 37°52' E 023°32'0 0.2
2016-Nov-27 22:33N 37°51' E 023°32'0 0.0
2016-Nov-27 21:33N 37°51' E 023°32'0 0.1
2016-Nov-27 20:33N 37°51' E 023°32'0 0.0
2016-Nov-27 19:33N 37°51' E 023°32'0 0.1
2016-Nov-27 18:33N 37°52' E 023°32'0 0.1
2016-Nov-27 17:33N 37°51' E 023°32'0 0.0
2016-Nov-27 16:33N 37°51' E 023°32'0 0.0
2016-Nov-27 15:33N 37°51' E 023°32'0 0.1
2016-Nov-27 14:33N 37°51' E 023°32'0 0.1
2016-Nov-27 13:33N 37°51' E 023°32'0 0.0
2016-Nov-27 12:34N 37°51' E 023°32'1 1.1
2016-Nov-27 11:33N 37°52' E 023°33'5 5.4
2016-Nov-27 10:33N 37°57' E 023°35'  

Dump ship's entire track history